Time;durP1;ratioP1;P1;durP2;ratioP2;P2;SDS_P1;SDS_P2;PMS_P1;PMS_P2;Temp;Humidity;BMP_temperature;BMP_pressure;BME280_temperature;BME280_humidity;BME280_pressure;Samples;Min_cycle;Max_cycle;Signal;HPM_P1;HPM_P2
2021/05/12 00:00:51;;;;;;;8.57;1.80;;;;;;;14.89;58.37;100763.97;4969619;28;20039;-66
2021/05/12 00:03:19;;;;;;;12.93;2.75;;;;;;;14.84;58.38;100761.31;4969472;28;20043;-65
2021/05/12 00:05:46;;;;;;;9.93;2.28;;;;;;;14.89;58.21;100753.34;4970423;28;20720;-65
2021/05/12 00:08:14;;;;;;;7.85;1.83;;;;;;;14.99;57.97;100755.97;4968375;28;20138;-65
2021/05/12 00:10:41;;;;;;;18.20;2.88;;;;;;;15.06;57.70;100759.50;4971149;28;20562;-66
2021/05/12 00:13:09;;;;;;;6.78;1.90;;;;;;;14.92;57.92;100755.97;4969913;28;20055;-65
2021/05/12 00:15:36;;;;;;;11.02;2.03;;;;;;;14.89;58.03;100753.34;4970303;28;20555;-65
2021/05/12 00:18:10;;;;;;;6.40;2.20;;;;;;;14.67;58.64;100763.13;4967723;28;20041;-66
2021/05/12 00:20:37;;;;;;;5.50;1.40;;;;;;;14.67;58.56;100758.69;4964876;28;20575;-65
2021/05/12 00:23:07;;;;;;;7.70;2.10;;;;;;;14.73;58.25;100760.44;4969516;28;20121;-66
2021/05/12 00:25:35;;;;;;;8.45;2.65;;;;;;;14.69;58.33;100756.03;4970860;28;20073;-65
2021/05/12 00:28:05;;;;;;;8.05;1.35;;;;;;;14.55;58.68;100753.41;4970612;28;20049;-65
2021/05/12 00:30:32;;;;;;;4.50;1.60;;;;;;;14.46;58.79;100747.19;4969702;28;20055;-66
2021/05/12 00:32:59;;;;;;;6.80;2.10;;;;;;;14.45;58.80;100750.72;4969493;28;20034;-65
2021/05/12 00:35:26;;;;;;;5.88;1.67;;;;;;;14.45;58.66;100750.72;4967941;28;20471;-66
2021/05/12 00:37:54;;;;;;;10.05;1.63;;;;;;;14.30;58.88;100752.50;4970225;28;20039;-66
2021/05/12 00:40:22;;;;;;;8.23;1.83;;;;;;;14.34;58.73;100740.97;4968961;28;20054;-65
2021/05/12 00:42:51;;;;;;;7.47;1.38;;;;;;;14.52;58.22;100742.75;4970321;28;20051;-66
2021/05/12 00:45:20;;;;;;;5.93;1.30;;;;;;;14.56;57.81;100743.66;4965908;28;20066;-65
2021/05/12 00:47:49;;;;;;;9.10;2.25;;;;;;;14.38;58.05;100743.63;4970677;28;20547;-65
2021/05/12 00:50:17;;;;;;;4.60;1.88;;;;;;;14.16;58.67;100742.75;4968585;28;20057;-65
2021/05/12 00:52:44;;;;;;;9.73;2.33;;;;;;;14.13;58.78;100733.00;4969523;28;20529;-65
2021/05/12 00:55:12;;;;;;;10.38;1.48;;;;;;;14.03;58.99;100739.19;4967759;28;20059;-66
2021/05/12 00:57:39;;;;;;;8.38;1.20;;;;;;;14.01;59.00;100729.44;4969805;28;20073;-66
2021/05/12 01:00:11;;;;;;;5.40;2.03;;;;;;;14.07;58.83;100727.69;4969289;28;20047;-65
2021/05/12 01:02:39;;;;;;;6.40;2.03;;;;;;;14.14;58.56;100729.44;4963570;28;20477;-65
2021/05/12 01:05:08;;;;;;;8.95;1.73;;;;;;;14.27;58.22;100725.03;4968254;28;20042;-65
2021/05/12 01:07:35;;;;;;;4.80;1.40;;;;;;;14.32;57.94;100718.81;4968246;28;20122;-66
2021/05/12 01:10:03;;;;;;;8.57;1.63;;;;;;;14.34;57.56;100710.88;4969946;28;20046;-66
2021/05/12 01:12:30;;;;;;;7.38;1.80;;;;;;;14.34;57.45;100709.09;4968897;28;20072;-66
2021/05/12 01:14:58;;;;;;;6.10;1.88;;;;;;;14.30;57.47;100702.03;4970121;28;20035;-66
2021/05/12 01:17:26;;;;;;;8.10;1.80;;;;;;;14.08;58.06;100699.38;4968536;28;20079;-65
2021/05/12 01:19:53;;;;;;;8.13;1.70;;;;;;;13.95;58.48;100701.13;4969493;28;20038;-66
2021/05/12 01:22:22;;;;;;;7.20;1.83;;;;;;;13.76;58.94;100697.56;4966978;28;20058;-67
2021/05/12 01:24:49;;;;;;;7.40;1.48;;;;;;;13.77;59.02;100701.13;4969476;28;20712;-65
2021/05/12 01:27:17;;;;;;;5.85;1.50;;;;;;;13.78;58.92;100693.16;4967646;28;20042;-66
2021/05/12 01:29:44;;;;;;;13.52;1.88;;;;;;;13.78;58.64;100692.28;4969580;28;20118;-64
2021/05/12 01:32:11;;;;;;;7.30;1.98;;;;;;;13.88;58.10;100694.94;4967967;28;20053;-65
2021/05/12 01:34:38;;;;;;;7.20;1.85;;;;;;;13.90;57.97;100686.97;4969327;28;20554;-65
2021/05/12 01:37:06;;;;;;;7.78;1.60;;;;;;;13.84;58.05;100697.59;4967768;28;20117;-66
2021/05/12 01:39:34;;;;;;;9.35;1.80;;;;;;;13.88;58.14;100692.28;4968554;28;20051;-65
2021/05/12 01:42:04;;;;;;;10.40;1.70;;;;;;;13.93;57.94;100697.59;4968962;28;20403;-66
2021/05/12 01:44:31;;;;;;;8.85;2.17;;;;;;;13.89;58.09;100698.47;4968245;28;20054;-65
2021/05/12 01:46:58;;;;;;;10.45;2.20;;;;;;;13.81;58.14;100697.56;4968669;28;20524;-65
2021/05/12 01:49:29;;;;;;;5.90;1.60;;;;;;;13.65;58.71;100701.09;4967957;28;20050;-66
2021/05/12 01:51:56;;;;;;;6.07;1.60;;;;;;;13.63;58.87;100706.41;4968854;28;20499;-66
2021/05/12 01:54:23;;;;;;;7.45;1.60;;;;;;;13.68;58.72;100711.69;4966571;28;20125;-65
2021/05/12 01:56:52;;;;;;;11.82;2.55;;;;;;;13.70;58.60;100709.94;4968562;28;20042;-65
2021/05/12 01:59:20;;;;;;;8.57;1.83;;;;;;;13.63;59.10;100711.69;4967909;28;20098;-65
2021/05/12 02:01:47;;;;;;;8.93;1.73;;;;;;;13.66;59.14;100710.81;4968467;28;20400;-66
2021/05/12 02:04:14;;;;;;;8.43;2.42;;;;;;;13.65;59.25;100709.06;4967337;28;20130;-65
2021/05/12 02:06:41;;;;;;;8.18;2.03;;;;;;;13.68;59.26;100711.69;4968517;28;20035;-65
2021/05/12 02:09:09;;;;;;;6.75;1.92;;;;;;;13.61;59.62;100705.50;4968083;28;20097;-65
2021/05/12 02:11:38;;;;;;;4.43;1.58;;;;;;;13.64;59.55;100710.81;4969466;28;20035;-66
2021/05/12 02:14:08;;;;;;;7.78;1.33;;;;;;;13.71;59.54;100701.09;4967574;28;20042;-65
2021/05/12 02:16:36;;;;;;;6.68;1.70;;;;;;;13.71;59.52;100712.59;4962705;28;20105;-65
2021/05/12 02:19:03;;;;;;;8.77;1.92;;;;;;;13.74;59.50;100707.28;4968102;28;20085;-65
2021/05/12 02:21:30;;;;;;;8.60;1.55;;;;;;;13.77;59.40;100704.66;4967631;28;20118;-66
2021/05/12 02:23:58;;;;;;;5.78;1.42;;;;;;;13.77;59.55;100706.44;4968864;28;20177;-66
2021/05/12 02:26:25;;;;;;;11.80;1.95;;;;;;;13.79;59.62;100694.03;4967455;28;20058;-66
2021/05/12 02:28:51;;;;;;;9.80;2.42;;;;;;;13.71;59.87;100693.16;4968044;28;20465;-66
2021/05/12 02:31:20;;;;;;;5.68;1.48;;;;;;;13.70;59.96;100694.03;4967668;28;20057;-65
2021/05/12 02:33:47;;;;;;;10.10;1.77;;;;;;;13.60;60.06;100692.22;4968504;28;20047;-65
2021/05/12 02:36:14;;;;;;;5.30;1.60;;;;;;;13.52;60.04;100701.03;4967068;28;20043;-65
2021/05/12 02:38:41;;;;;;;9.32;2.00;;;;;;;13.48;60.20;100696.63;4968848;28;20548;-66
2021/05/12 02:41:08;;;;;;;6.35;1.60;;;;;;;13.36;60.50;100687.75;4967231;28;20038;-65
2021/05/12 02:43:35;;;;;;;9.70;1.88;;;;;;;13.41;60.55;100692.19;4968129;28;20077;-66
2021/05/12 02:46:03;;;;;;;7.97;1.90;;;;;;;13.38;60.60;100697.50;4965870;28;20061;-66
2021/05/12 02:48:31;;;;;;;8.85;1.80;;;;;;;13.29;61.15;100692.16;4966108;28;20047;-66
2021/05/12 02:50:58;;;;;;;8.43;1.38;;;;;;;13.35;61.43;100689.53;4964956;28;20039;-66
2021/05/12 02:53:26;;;;;;;6.20;1.73;;;;;;;13.39;61.50;100693.94;4967415;28;20133;-66
2021/05/12 02:55:53;;;;;;;5.93;1.60;;;;;;;13.37;61.51;100689.53;4970648;28;20058;-66
2021/05/12 02:58:20;;;;;;;10.88;1.50;;;;;;;13.38;61.35;100694.84;4971024;28;20581;-65
2021/05/12 03:00:47;;;;;;;9.00;1.90;;;;;;;13.26;61.79;100702.72;4971868;28;20047;-65
2021/05/12 03:03:15;;;;;;;6.35;1.70;;;;;;;13.28;62.25;100695.69;4969862;28;20447;-65
2021/05/12 03:05:43;;;;;;;4.97;1.58;;;;;;;13.42;61.94;100696.63;4971977;28;20097;-66
2021/05/12 03:08:10;;;;;;;7.63;2.15;;;;;;;13.33;62.00;100693.91;4970019;28;20562;-65
2021/05/12 03:10:39;;;;;;;7.75;1.60;;;;;;;13.13;62.75;100698.25;4972190;28;20186;-66
2021/05/12 03:13:08;;;;;;;8.95;1.63;;;;;;;13.30;62.76;100703.66;4969923;28;20101;-65
2021/05/12 03:15:36;;;;;;;8.13;1.40;;;;;;;13.33;62.58;100706.28;4971725;28;20039;-66
2021/05/12 03:18:04;;;;;;;7.30;1.80;;;;;;;13.33;62.19;100712.47;4970223;28;20058;-65
2021/05/12 03:20:32;;;;;;;4.50;1.70;;;;;;;13.33;62.17;100715.13;4971606;28;20114;-66
2021/05/12 03:23:00;;;;;;;8.50;1.58;;;;;;;13.30;62.17;100717.78;4971792;28;20049;-66
2021/05/12 03:25:27;;;;;;;8.25;1.67;;;;;;;13.31;62.38;100721.31;4970200;28;20125;-66
2021/05/12 03:27:56;;;;;;;11.80;2.53;;;;;;;13.35;62.45;100717.78;4971775;28;20035;-65
2021/05/12 03:30:25;;;;;;;7.82;1.83;;;;;;;13.43;62.78;100731.97;4969678;28;20039;-66
2021/05/12 03:32:52;;;;;;;7.55;1.65;;;;;;;13.52;62.92;100732.88;4970742;28;20133;-66
2021/05/12 03:35:20;;;;;;;11.35;1.98;;;;;;;13.72;62.54;100737.38;4969328;28;20043;-66
2021/05/12 03:37:47;;;;;;;8.82;1.52;;;;;;;13.95;62.23;100730.31;4971073;28;20081;-65
2021/05/12 03:40:17;;;;;;;7.30;2.00;;;;;;;14.04;62.34;100732.13;4969673;28;20779;-66
2021/05/12 03:42:45;;;;;;;5.78;1.67;;;;;;;14.16;62.20;100730.34;4971404;28;20066;-65
2021/05/12 03:45:13;;;;;;;3.90;1.17;;;;;;;14.27;62.30;100733.00;4970154;28;20082;-65
2021/05/12 03:47:40;;;;;;;6.95;1.48;;;;;;;14.38;61.88;100727.69;4975795;28;20035;-66
2021/05/12 03:50:09;;;;;;;4.50;1.40;;;;;;;14.52;62.12;100731.25;4970152;28;20123;-65
2021/05/12 03:52:37;;;;;;;6.97;1.73;;;;;;;14.67;62.20;100712.63;4970960;28;20043;-65
2021/05/12 03:55:05;;;;;;;8.68;1.90;;;;;;;14.87;62.28;100708.16;4969655;28;20087;-66
2021/05/12 03:57:34;;;;;;;9.55;2.28;;;;;;;15.00;61.93;100709.88;4970952;28;20035;-65
2021/05/12 04:00:01;;;;;;;7.57;1.40;;;;;;;15.10;61.75;100716.94;4968737;28;20141;-66
2021/05/12 04:02:28;;;;;;;7.38;1.65;;;;;;;15.36;61.51;100711.50;4969826;28;20113;-66
2021/05/12 04:04:56;;;;;;;8.00;1.20;;;;;;;15.42;60.27;100718.59;4970218;28;20042;-65
2021/05/12 04:07:23;;;;;;;4.18;1.30;;;;;;;15.40;59.87;100720.38;4968891;28;20089;-66
2021/05/12 04:09:50;;;;;;;6.72;1.48;;;;;;;15.47;59.16;100723.00;4971745;28;20043;-66
2021/05/12 04:12:17;;;;;;;4.15;1.25;;;;;;;15.52;58.39;100728.28;4969451;28;20094;-66
2021/05/12 04:14:46;;;;;;;6.95;1.88;;;;;;;15.52;58.08;100722.97;4966548;28;20125;-66
2021/05/12 04:17:13;;;;;;;11.77;1.65;;;;;;;15.75;58.59;100726.38;4967839;28;20503;-65
2021/05/12 04:19:41;;;;;;;6.32;1.35;;;;;;;16.09;58.91;100726.16;4971110;28;20521;-65
2021/05/12 04:22:09;;;;;;;4.65;1.38;;;;;;;16.49;58.84;100729.38;4968707;28;20139;-66
2021/05/12 04:24:36;;;;;;;8.07;1.58;;;;;;;16.79;58.71;100729.13;4970829;28;20027;-66
2021/05/12 04:27:04;;;;;;;8.50;2.00;;;;;;;17.05;58.58;100723.53;4969514;28;20093;-66
2021/05/12 04:29:32;;;;;;;7.25;1.58;;;;;;;17.31;58.34;100724.09;4966996;28;20134;-66
2021/05/12 04:32:02;;;;;;;8.48;1.40;;;;;;;17.68;58.09;100734.31;4963777;28;20043;-67
2021/05/12 04:34:29;;;;;;;7.47;1.13;;;;;;;18.00;57.56;100726.69;4965927;28;20086;-66
2021/05/12 04:36:56;;;;;;;5.65;1.30;;;;;;;18.32;57.15;100724.38;4969155;28;20034;-66
2021/05/12 04:39:23;;;;;;;3.65;1.40;;;;;;;18.58;56.75;100731.09;4968090;28;20066;-67
2021/05/12 04:41:51;;;;;;;4.93;1.85;;;;;;;18.80;56.21;100729.81;4968747;28;20042;-66
2021/05/12 04:44:18;;;;;;;8.65;1.65;;;;;;;18.81;54.12;100733.38;4966524;28;20049;-66
2021/05/12 04:46:45;;;;;;;7.13;1.80;;;;;;;18.83;53.44;100732.44;4967702;28;20038;-66
2021/05/12 04:49:13;;;;;;;6.88;1.25;;;;;;;19.09;53.63;100735.50;4966516;28;20507;-67
2021/05/12 04:51:40;;;;;;;12.02;2.00;;;;;;;19.40;53.37;100742.91;4967547;28;20047;-66
2021/05/12 04:54:08;;;;;;;7.68;1.50;;;;;;;19.68;52.67;100746.81;4967391;28;20041;-67
2021/05/12 04:56:35;;;;;;;6.80;1.48;;;;;;;19.89;52.26;100740.06;4969544;28;20414;-67
2021/05/12 04:59:03;;;;;;;6.95;1.42;;;;;;;20.23;52.49;100737.47;4969964;28;20114;-66
2021/05/12 05:01:31;;;;;;;8.85;1.85;;;;;;;20.65;51.92;100736.44;4969678;28;20043;-66
2021/05/12 05:03:59;;;;;;;6.10;1.48;;;;;;;21.14;49.76;100732.38;4969398;28;20038;-67
2021/05/12 05:06:28;;;;;;;5.03;1.08;;;;;;;21.54;48.93;100732.16;4968425;28;20754;-66
2021/05/12 05:08:58;;;;;;;7.25;1.40;;;;;;;21.86;47.96;100725.78;4968908;28;20030;-66
2021/05/12 05:11:25;;;;;;;12.20;1.67;;;;;;;22.17;45.88;100726.63;4968185;28;20038;-67
2021/05/12 05:13:52;;;;;;;6.75;1.13;;;;;;;22.57;44.94;100734.25;4968349;28;20035;-68
2021/05/12 05:16:19;;;;;;;11.18;1.55;;;;;;;22.90;44.28;100732.22;4965018;28;20109;-67
2021/05/12 05:18:48;;;;;;;3.58;0.93;;;;;;;23.13;43.73;100733.19;4966977;28;20038;-67
2021/05/12 05:21:16;;;;;;;7.78;1.10;;;;;;;23.33;43.27;100728.81;4963374;28;20055;-67
2021/05/12 05:23:45;;;;;;;5.78;1.45;;;;;;;23.69;42.05;100733.78;4960705;28;20510;-67
2021/05/12 05:26:12;;;;;;;5.25;1.00;;;;;;;24.07;40.88;100729.56;4969384;28;20098;-66
2021/05/12 05:28:39;;;;;;;5.75;0.93;;;;;;;24.39;39.79;100723.75;4958655;28;20506;-67
2021/05/12 05:31:06;;;;;;;3.85;1.08;;;;;;;24.63;37.57;100720.00;4968665;28;20034;-67
2021/05/12 05:33:33;;;;;;;7.93;1.50;;;;;;;24.83;36.98;100718.25;4966812;28;20527;-66
2021/05/12 05:36:00;;;;;;;3.65;0.98;;;;;;;25.06;35.84;100712.75;4969842;28;20397;-67
2021/05/12 05:38:27;;;;;;;5.05;1.20;;;;;;;25.24;34.29;100711.91;4971420;28;20039;-67
2021/05/12 05:40:56;;;;;;;4.72;0.80;;;;;;;25.36;33.74;100716.75;4963226;28;20136;-66
2021/05/12 05:43:23;;;;;;;7.03;1.30;;;;;;;25.54;33.60;100722.25;4971905;28;20066;-67
2021/05/12 05:45:50;;;;;;;6.95;2.00;;;;;;;25.79;33.31;100728.31;4971627;28;20094;-67
2021/05/12 05:48:17;;;;;;;4.75;0.80;;;;;;;25.99;31.44;100730.06;4971847;28;20062;-66
2021/05/12 05:50:44;;;;;;;6.05;0.90;;;;;;;26.23;30.44;100725.25;4971861;28;20054;-67
2021/05/12 05:53:11;;;;;;;2.80;0.75;;;;;;;26.47;29.50;100733.06;4971536;28;20070;-67
2021/05/12 05:55:38;;;;;;;4.90;0.77;;;;;;;26.57;28.89;100728.94;4971963;28;20034;-67
2021/05/12 05:58:07;;;;;;;4.38;0.73;;;;;;;26.80;27.77;100733.16;4963759;28;20039;-67
2021/05/12 06:00:34;;;;;;;4.03;0.70;;;;;;;26.84;27.59;100728.47;4971269;28;20130;-67
2021/05/12 06:03:04;;;;;;;4.20;1.00;;;;;;;26.91;26.77;100728.06;4971595;28;20035;-67
2021/05/12 06:05:33;;;;;;;5.10;1.00;;;;;;;26.84;26.80;100732.06;4969153;28;20034;-67
2021/05/12 06:08:00;;;;;;;2.90;1.20;;;;;;;27.01;26.69;100735.72;4971861;28;20059;-67
2021/05/12 06:10:28;;;;;;;2.28;0.70;;;;;;;27.22;26.04;100724.63;4969939;28;20043;-68
2021/05/12 06:12:55;;;;;;;5.57;0.70;;;;;;;27.43;25.32;100729.84;4968816;28;20043;-67
2021/05/12 06:15:24;;;;;;;3.75;0.75;;;;;;;27.64;25.20;100728.69;4971048;28;20506;-68
2021/05/12 06:17:51;;;;;;;3.63;0.60;;;;;;;27.71;24.68;100735.50;4966182;28;20073;-66
2021/05/12 06:20:19;;;;;;;5.20;0.80;;;;;;;27.78;24.07;100731.50;4970501;28;20047;-67
2021/05/12 06:22:46;;;;;;;4.18;0.80;;;;;;;27.78;23.47;100734.22;4969874;28;20043;-66
2021/05/12 06:25:13;;;;;;;3.05;0.63;;;;;;;27.84;23.21;100731.16;4972274;28;20130;-67
2021/05/12 06:27:40;;;;;;;3.13;0.57;;;;;;;27.66;23.27;100730.34;4970103;28;20035;-67
2021/05/12 06:30:08;;;;;;;3.65;0.95;;;;;;;27.58;23.81;100731.72;4974553;28;20407;-67
2021/05/12 06:32:37;;;;;;;3.88;0.80;;;;;;;27.64;24.28;100736.81;4972894;28;20046;-67
2021/05/12 06:35:04;;;;;;;3.00;0.63;;;;;;;27.69;24.10;100730.19;4970774;28;20086;-67
2021/05/12 06:37:31;;;;;;;1.67;0.50;;;;;;;27.68;24.42;100731.16;4974046;28;20125;-67
2021/05/12 06:39:59;;;;;;;5.20;0.82;;;;;;;27.74;24.85;100730.81;4974156;28;20556;-66
2021/05/12 06:42:27;;;;;;;6.78;0.88;;;;;;;27.85;25.55;100734.75;4972656;28;20045;-67
2021/05/12 06:44:54;;;;;;;5.13;0.80;;;;;;;27.87;25.86;100730.13;4974414;28;20038;-68
2021/05/12 06:47:22;;;;;;;5.63;0.73;;;;;;;27.90;26.33;100730.81;4975160;28;20050;-67
2021/05/12 06:49:50;;;;;;;4.03;0.90;;;;;;;28.02;26.51;100731.97;4957048;28;20439;-67
2021/05/12 06:52:18;;;;;;;5.10;0.98;;;;;;;28.07;26.70;100730.72;4955285;28;20046;-67
2021/05/12 06:54:45;;;;;;;3.67;0.90;;;;;;;28.22;26.81;100728.13;4974434;28;20050;-67
2021/05/12 06:57:13;;;;;;;6.20;0.95;;;;;;;28.35;27.20;100734.59;4974254;28;20110;-66
2021/05/12 06:59:40;;;;;;;6.07;1.00;;;;;;;28.43;27.84;100738.59;4971488;28;20570;-67
2021/05/12 07:02:07;;;;;;;4.97;1.05;;;;;;;28.27;28.29;100740.47;4971183;28;20125;-67
2021/05/12 07:04:34;;;;;;;3.35;1.33;;;;;;;28.33;28.46;100752.81;4971075;28;20069;-67
2021/05/12 07:07:03;;;;;;;6.43;1.13;;;;;;;28.36;28.68;100753.50;4974096;28;20504;-67
2021/05/12 07:09:30;;;;;;;10.05;1.38;;;;;;;28.35;28.76;100756.34;4975357;28;20035;-67
2021/05/12 07:11:57;;;;;;;4.80;1.20;;;;;;;28.34;29.34;100755.47;4974285;28;20046;-66
2021/05/12 07:14:24;;;;;;;6.07;1.23;;;;;;;28.41;29.92;100755.97;4972244;28;20518;-68
2021/05/12 07:16:52;;;;;;;5.57;1.00;;;;;;;28.46;30.55;100759.28;4973945;28;20054;-67
2021/05/12 07:19:20;;;;;;;4.00;1.55;;;;;;;28.48;31.00;100754.66;4973648;28;20050;-67
2021/05/12 07:21:48;;;;;;;6.93;1.20;;;;;;;28.28;31.65;100757.66;4969997;28;20071;-67
2021/05/12 07:24:16;;;;;;;7.95;1.10;;;;;;;28.37;31.71;100755.25;4969579;28;20046;-67
2021/05/12 07:26:43;;;;;;;6.30;1.50;;;;;;;28.50;31.20;100760.84;4973144;28;20071;-67
2021/05/12 07:29:10;;;;;;;4.82;1.10;;;;;;;28.63;30.89;100758.28;4969283;28;20145;-67
2021/05/12 07:31:38;;;;;;;3.13;1.00;;;;;;;28.65;30.56;100762.66;4971381;28;20404;-68
2021/05/12 07:34:09;;;;;;;4.45;1.25;;;;;;;28.74;30.00;100761.25;4972750;28;20134;-67
2021/05/12 07:36:37;;;;;;;6.20;1.15;;;;;;;28.80;29.86;100758.19;4974457;28;20038;-67
2021/05/12 07:39:07;;;;;;;4.20;1.08;;;;;;;28.72;29.72;100765.91;4974937;28;20178;-67
2021/05/12 07:41:35;;;;;;;4.80;0.73;;;;;;;28.94;29.66;100763.69;4971740;28;20522;-67
2021/05/12 07:44:03;;;;;;;6.82;1.20;;;;;;;29.08;29.35;100760.97;4974384;28;20129;-67
2021/05/12 07:46:30;;;;;;;6.43;1.23;;;;;;;29.18;29.18;100767.63;4972966;28;20631;-67
2021/05/12 07:48:57;;;;;;;5.57;0.82;;;;;;;29.22;28.70;100761.00;4973359;28;20126;-67
2021/05/12 07:51:24;;;;;;;6.30;1.33;;;;;;;29.24;28.71;100767.25;4972074;28;20086;-67
2021/05/12 07:53:52;;;;;;;5.05;1.10;;;;;;;29.27;28.98;100764.34;4973610;28;20499;-67
2021/05/12 07:56:19;;;;;;;4.20;0.90;;;;;;;29.29;29.33;100764.22;4972700;28;20094;-67
2021/05/12 07:58:48;;;;;;;8.43;1.00;;;;;;;29.39;29.75;100756.41;4973302;28;20079;-67
2021/05/12 08:01:19;;;;;;;7.07;1.40;;;;;;;29.47;30.13;100762.25;4972978;28;20228;-67
2021/05/12 08:03:46;;;;;;;5.18;1.00;;;;;;;29.48;29.94;100758.53;4974956;28;20043;-67
2021/05/12 08:06:14;;;;;;;5.07;1.27;;;;;;;29.49;29.30;100758.44;4972914;28;20126;-67
2021/05/12 08:08:41;;;;;;;5.53;1.20;;;;;;;29.61;27.94;100756.78;4974783;28;20106;-67
2021/05/12 08:11:08;;;;;;;3.53;0.90;;;;;;;29.67;26.27;100757.28;4973174;28;20062;-67
2021/05/12 08:13:35;;;;;;;5.38;1.20;;;;;;;29.70;25.64;100761.66;4970297;28;20041;-67
2021/05/12 08:16:04;;;;;;;7.93;1.90;;;;;;;29.86;25.33;100762.44;4972616;28;20043;-67
2021/05/12 08:18:31;;;;;;;10.13;1.10;;;;;;;29.85;26.23;100754.38;4972924;28;20150;-67
2021/05/12 08:21:00;;;;;;;12.98;1.52;;;;;;;29.96;25.54;100755.44;4971023;28;20180;-67
2021/05/12 08:23:27;;;;;;;9.43;1.67;;;;;;;30.19;24.91;100759.41;4973634;28;20097;-68
2021/05/12 08:25:54;;;;;;;11.70;1.55;;;;;;;30.19;24.75;100750.34;4973837;28;20126;-67
2021/05/12 08:28:22;;;;;;;11.20;1.63;;;;;;;30.08;26.64;100751.91;4970724;28;20143;-67
2021/05/12 08:30:49;;;;;;;11.52;2.08;;;;;;;30.05;28.71;100751.25;4972916;28;20078;-67
2021/05/12 08:33:19;;;;;;;6.43;1.63;;;;;;;29.65;30.24;100753.78;4973416;28;20042;-65
2021/05/12 08:35:47;;;;;;;8.63;1.77;;;;;;;29.49;30.55;100753.00;4971141;28;20403;-65
2021/05/12 08:38:18;;;;;;;10.02;1.60;;;;;;;29.42;30.95;100750.75;4970547;28;20030;-65
2021/05/12 08:40:48;;;;;;;17.02;2.03;;;;;;;29.57;31.42;100750.69;4973562;28;20039;-65
2021/05/12 08:43:16;;;;;;;15.25;2.28;;;;;;;29.56;31.82;100757.09;4971725;28;20034;-65
2021/05/12 08:45:44;;;;;;;12.05;1.70;;;;;;;29.42;32.27;100739.88;4972544;28;20063;-65
2021/05/12 08:48:17;;;;;;;9.63;1.95;;;;;;;29.08;32.87;100741.94;4970030;28;20039;-65
2021/05/12 08:50:47;;;;;;;7.22;1.42;;;;;;;28.16;34.26;100753.78;4973686;28;20038;-65
2021/05/12 08:53:14;;;;;;;13.90;1.80;;;;;;;28.21;34.70;100754.41;4971440;28;20043;-65
2021/05/12 08:55:41;;;;;;;12.68;2.35;;;;;;;28.23;35.33;100743.44;4972876;28;20070;-65
2021/05/12 08:58:08;;;;;;;17.08;2.15;;;;;;;28.15;35.61;100746.63;4970203;28;20042;-65
2021/05/12 09:00:37;;;;;;;6.03;1.48;;;;;;;28.00;35.48;100734.75;4970893;28;20070;-65
2021/05/12 09:03:04;;;;;;;6.72;1.50;;;;;;;28.15;35.62;100746.63;4965598;28;20109;-65
2021/05/12 09:05:32;;;;;;;5.18;1.10;;;;;;;28.32;35.43;100732.94;4973101;28;20101;-67
2021/05/12 09:08:00;;;;;;;6.93;1.60;;;;;;;28.70;34.72;100740.66;4971808;28;20066;-65
2021/05/12 09:10:28;;;;;;;4.43;0.93;;;;;;;28.67;33.90;100740.84;4972964;28;20039;-65
2021/05/12 09:12:57;;;;;;;8.35;1.38;;;;;;;28.93;33.41;100734.75;4972418;28;20079;-65
2021/05/12 09:15:26;;;;;;;7.13;1.63;;;;;;;28.89;34.13;100730.44;4972492;28;20046;-67
2021/05/12 09:17:55;;;;;;;7.20;1.63;;;;;;;29.11;34.14;100736.31;4971734;28;20075;-67
2021/05/12 09:20:39;;;;;;;3.25;1.08;;;;;;;29.02;33.31;100731.44;4971939;28;20058;-68
2021/05/12 09:23:09;;;;;;;;;;;;;;;29.02;33.16;100728.72;4968535;28;20407;-67
2021/05/12 09:25:38;;;;;;;6.55;1.20;;;;;;;29.42;33.14;100729.00;4964419;28;20308;-67
2021/05/12 09:28:12;;;;;;;9.23;1.58;;;;;;;29.51;34.01;100725.69;4971959;28;20517;-68
2021/05/12 09:30:39;;;;;;;6.30;1.20;;;;;;;29.41;34.11;100727.25;4972417;28;20562;-69
2021/05/12 09:33:08;;;;;;;6.78;1.92;;;;;;;28.96;34.55;100723.66;4969698;28;20039;-67
2021/05/12 09:35:41;;;;;;;7.05;1.08;;;;;;;28.68;34.85;100710.88;4972908;28;20058;-67
2021/05/12 09:38:22;;;;;;;4.50;1.02;;;;;;;28.51;34.51;100713.69;4968252;28;20074;-67
2021/05/12 09:41:03;;;;;;;6.30;1.27;;;;;;;28.73;33.67;100714.19;4972682;28;20049;-67
2021/05/12 09:43:31;;;;;;;7.63;1.20;;;;;;;28.76;33.39;100713.13;4970893;28;20066;-67
2021/05/12 09:46:19;;;;;;;4.57;1.00;;;;;;;28.91;32.29;100706.78;4972717;28;20578;-67
2021/05/12 09:49:07;;;;;;;6.10;1.20;;;;;;;28.55;32.92;100709.84;4970903;28;20078;-67
2021/05/12 09:51:35;;;;;;;5.63;1.17;;;;;;;28.70;33.07;100708.03;4969096;28;20093;-67
2021/05/12 09:54:09;;;;;;;6.93;1.27;;;;;;;28.42;33.88;100712.41;4970826;28;20058;-67
2021/05/12 09:56:44;;;;;;;;;;;;;;;28.24;34.17;100716.19;4972022;28;20041;-67
2021/05/12 09:59:13;;;;;;;;;;;;;;;28.48;34.45;100716.63;4970317;28;19929;-67
2021/05/12 10:01:45;;;;;;;9.43;1.65;;;;;;;28.71;34.13;100717.94;4970503;28;19926;-67
2021/05/12 10:04:37;;;;;;;8.40;1.48;;;;;;;28.72;33.93;100720.56;4971019;28;20121;-66
2021/05/12 10:07:15;;;;;;;8.55;1.50;;;;;;;28.53;33.97;100709.94;4968645;28;20043;-67
2021/05/12 10:09:45;;;;;;;7.05;1.73;;;;;;;28.48;33.67;100708.47;4963807;28;20049;-66
2021/05/12 10:12:14;;;;;;;7.45;1.35;;;;;;;28.45;33.79;100712.22;4969599;28;20114;-67
2021/05/12 10:14:43;;;;;;;3.58;0.93;;;;;;;28.52;33.73;100712.75;4962806;28;20496;-67
2021/05/12 10:17:12;;;;;;;8.32;1.00;;;;;;;28.70;33.40;100708.03;4957790;28;20147;-66
2021/05/12 10:19:40;;;;;;;7.35;1.95;;;;;;;28.58;33.38;100708.78;4959920;28;20068;-67
2021/05/12 10:22:07;;;;;;;6.82;1.35;;;;;;;28.48;33.65;100705.75;4963636;28;20038;-67
2021/05/12 10:24:36;;;;;;;7.65;1.20;;;;;;;28.53;33.46;100704.50;4959478;28;20039;-67
2021/05/12 10:27:09;;;;;;;6.95;1.23;;;;;;;28.46;33.78;100703.13;4960242;28;21734;-66
2021/05/12 10:29:41;;;;;;;5.37;1.10;;;;;;;28.58;33.35;100703.34;4959057;28;20074;-65
2021/05/12 10:32:18;;;;;;;7.28;1.17;;;;;;;28.38;32.99;100710.84;4958160;28;20789;-66
2021/05/12 10:34:49;;;;;;;5.00;1.15;;;;;;;28.27;32.83;100709.72;4962708;28;20063;-66
2021/05/12 10:37:19;;;;;;;7.57;1.52;;;;;;;28.32;32.87;100710.31;4953248;28;20046;-67
2021/05/12 10:39:58;;;;;;;6.70;1.58;;;;;;;28.33;32.70;100710.25;4962945;28;20404;-66
2021/05/12 10:43:10;;;;;;;7.68;1.15;;;;;;;28.42;32.65;100708.84;4964261;28;20047;-67
2021/05/12 10:45:57;;;;;;;5.78;1.30;;;;;;;27.96;33.56;100702.47;4968984;28;20514;-67
2021/05/12 10:48:48;;;;;;;7.97;1.50;;;;;;;27.86;33.72;100703.94;4959763;28;20042;-66
2021/05/12 10:51:33;;;;;;;8.18;1.38;;;;;;;27.61;34.02;100693.59;4968328;28;20051;-67
2021/05/12 10:54:03;;;;;;;8.32;1.50;;;;;;;27.60;33.98;100698.13;4968732;28;20050;-67
2021/05/12 10:56:38;;;;;;;8.05;1.40;;;;;;;27.61;33.92;100697.19;4965653;28;20487;-67
2021/05/12 10:59:07;;;;;;;6.47;1.30;;;;;;;27.46;34.45;100695.28;4967082;28;20085;-67
2021/05/12 11:01:51;;;;;;;4.38;1.02;;;;;;;27.45;34.40;100701.66;4969702;28;20471;-67
2021/05/12 11:04:21;;;;;;;9.02;1.88;;;;;;;27.53;34.70;100699.44;4968963;28;20101;-67
2021/05/12 11:07:03;;;;;;;5.47;1.50;;;;;;;27.55;34.54;100707.50;4970602;28;20109;-67
2021/05/12 11:09:46;;;;;;;6.55;1.50;;;;;;;27.80;34.57;100710.59;4970076;28;20034;-68
2021/05/12 11:12:34;;;;;;;6.28;1.25;;;;;;;27.91;33.81;100705.41;4969588;28;20531;-67
2021/05/12 11:15:11;;;;;;;6.57;1.70;;;;;;;28.04;33.47;100714.59;4970444;28;20138;-68
2021/05/12 11:17:56;;;;;;;4.88;1.30;;;;;;;28.17;33.48;100709.38;4974202;28;20133;-67
2021/05/12 11:20:26;;;;;;;5.85;1.30;;;;;;;28.06;33.27;100709.97;4972239;28;20050;-67
2021/05/12 11:22:56;;;;;;;5.65;1.63;;;;;;;28.04;33.41;100708.31;4973201;28;20400;-66
2021/05/12 11:25:48;;;;;;;4.70;1.38;;;;;;;28.32;33.09;100705.78;4974051;28;20042;-65
2021/05/12 11:28:45;;;;;;;5.15;1.30;;;;;;;28.44;32.57;100710.47;4967665;28;20566;-65
2021/05/12 11:31:37;;;;;;;5.75;1.20;;;;;;;28.66;31.80;100712.78;4970365;28;20039;-64
2021/05/12 11:34:05;;;;;;;6.40;1.30;;;;;;;29.13;31.30;100718.09;4967720;28;20530;-65